Butes — A8UR6 — position and weather

sailwx.info

Track history (hours):
 
Tides and Currents Weather Stations Pressure Air Temp Water Temp Dewpoint Dewpoint Depression Visibility Wind Speed Wind Dir Waves Ship Positions

Butes

Last reported at 2015-May-02 16:29 UTC. Time now 2015-May-03 12:51 UTC.
Position N 54°36' W 001°10'.

Length 90 m; draft 5.6 m.

Type: Cargo ship. MMSI: 636091937.

Date/timePositionNaut miles runAvg speedWind from/ knotsBaromVisibWave heightAir tempDewpointWater temp
2015-May-02 16:29N 54°36' W 001°10'0 0.0
2015-May-02 15:29N 54°36' W 001°10'0 0.0
2015-May-02 14:29N 54°36' W 001°10'0 0.0
2015-May-02 13:17N 54°36' W 001°10'0 0.0
2015-May-02 12:20N 54°36' W 001°10'0 0.0
2015-May-02 11:23N 54°36' W 001°10'0 0.0
2015-May-02 10:05N 54°36' W 001°10'0 0.0
2015-May-02 08:17N 54°36' W 001°10'0 0.0
2015-May-02 07:32N 54°36' W 001°10'0 0.0
2015-May-02 05:21N 54°36' W 001°10'0 0.0
2015-May-01 16:21N 54°36' W 001°10'0 0.0
2015-May-01 15:24N 54°36' W 001°10'0 0.0
2015-May-01 14:21N 54°36' W 001°10'4 5.4
2015-May-01 13:33N 54°40' W 001°06'3 2.7
2015-May-01 12:23N 54°40' W 001°00'3 3.1
2015-May-01 11:32N 54°39' W 000°56'7 6.9
2015-May-01 10:32N 54°36' W 000°46'6 6.0
2015-May-01 09:33N 54°34' W 000°36'7 6.8
2015-May-01 08:33N 54°30' W 000°27'7 6.9
2015-May-01 07:33N 54°25' W 000°19'7 6.7
2015-May-01 06:34N 54°19' W 000°13'7 7.4
2015-May-01 05:33N 54°14' W 000°05'6 5.7
2015-May-01 04:34N 54°09' E 000°01'5 5.0
2015-May-01 03:34N 54°05' E 000°06'5 4.6
2015-May-01 02:33N 54°01' E 000°10'4 4.5
2015-May-01 01:33N 53°57' E 000°13'5 4.5
2015-May-01 00:34N 53°53' E 000°17'5 4.9
2015-Apr-30 23:33N 53°49' E 000°21'5 5.5
2015-Apr-30 22:33N 53°44' E 000°27'7 6.3
2015-Apr-30 21:32N 53°38' E 000°31'41 5.9
2015-Apr-30 14:33N 53°08' E 001°18'7 6.9
2015-Apr-30 13:33N 53°03' E 001°25'8 7.8
2015-Apr-30 12:34N 52°57' E 001°34'9 8.6
2015-Apr-30 11:34N 52°52' E 001°45'11 8.3
2015-Apr-30 10:12N 52°43' E 001°56'5 8.2
2015-Apr-30 09:34N 52°37' E 001°57'7 7.2
2015-Apr-30 08:34N 52°30' E 001°56'6 6.1
2015-Apr-30 07:34N 52°24' E 001°54'12 6.1
2015-Apr-30 05:34N 52°12' E 001°52'6 6.2
2015-Apr-30 04:34N 52°06' E 001°51'7 6.9
2015-Apr-30 03:34N 51°59' E 001°49'8 7.9
2015-Apr-30 02:32N 51°51' E 001°49'8 8.3
2015-Apr-30 01:33N 51°43' E 001°50'9 8.4
2015-Apr-30 00:32N 51°34' E 001°49'9 8.7
2015-Apr-29 23:34N 51°26' E 001°46'9 9.2
2015-Apr-29 22:34N 51°17' E 001°42'8 8.3
2015-Apr-29 21:33N 51°09' E 001°43'10 9.3
2015-Apr-29 20:32N 51°01' E 001°33'  
2015-Apr-24 04:32N 39°16' W 009°50'7 6.9
2015-Apr-24 03:32N 39°09' W 009°50'7 6.9
2015-Apr-24 02:33N 39°02' W 009°50'7 6.7
2015-Apr-24 01:33N 38°56' W 009°51'7 6.9
2015-Apr-24 00:33N 38°49' W 009°51'7 6.8
2015-Apr-23 23:33N 38°42' W 009°50'6 5.5
2015-Apr-23 22:33N 38°37' W 009°46'7 6.9
2015-Apr-23 21:33N 38°37' W 009°37'7 6.8
2015-Apr-23 20:33N 38°37' W 009°29'7 6.6
2015-Apr-23 19:33N 38°39' W 009°21'6 6.4
2015-Apr-23 18:34N 38°41' W 009°13'7 6.5
2015-Apr-23 17:32N 38°40' W 009°04'0 0.0
2015-Apr-23 16:32N 38°40' W 009°04'0 0.0
2015-Apr-23 15:32N 38°40' W 009°04'0 0.0
2015-Apr-23 14:32N 38°40' W 009°04'0 0.0
2015-Apr-23 13:23N 38°40' W 009°04'0 0.0
2015-Apr-23 12:32N 38°40' W 009°04'0 0.0
2015-Apr-23 11:32N 38°40' W 009°04'0 0.0
2015-Apr-23 10:26N 38°40' W 009°04'0 0.0
2015-Apr-23 09:29N 38°40' W 009°04'0 0.0
2015-Apr-23 08:32N 38°40' W 009°04'0 0.0
2015-Apr-23 07:32N 38°40' W 009°04'0 0.0
2015-Apr-23 06:32N 38°40' W 009°04'0 0.0
2015-Apr-23 05:32N 38°40' W 009°04'0 0.0
2015-Apr-23 04:32N 38°40' W 009°04'0 0.0
2015-Apr-23 03:32N 38°40' W 009°04'0 0.0
2015-Apr-23 02:32N 38°40' W 009°04'0 0.0
2015-Apr-23 01:32N 38°40' W 009°04'0 0.0
2015-Apr-23 00:32N 38°40' W 009°04'0 0.0
2015-Apr-22 23:32N 38°40' W 009°04'0 0.0
2015-Apr-22 22:32N 38°40' W 009°04'0 0.0
2015-Apr-22 21:32N 38°40' W 009°04'0 0.0
2015-Apr-22 20:32N 38°40' W 009°04'0 0.0
2015-Apr-22 19:32N 38°40' W 009°04'0 0.0
2015-Apr-22 18:32N 38°40' W 009°04'0 0.0
2015-Apr-22 17:32N 38°40' W 009°04'0 0.0
2015-Apr-22 16:32N 38°40' W 009°04'  
Track history (hours):
 
Tides and Currents Weather Stations Pressure Air Temp Water Temp Dewpoint Dewpoint Depression Visibility Wind Speed Wind Dir Waves Ship Positions

Butes

Last reported at 2015-May-02 16:29 UTC. Time now 2015-May-03 12:51 UTC.
Position N 54°36' W 001°10'.

Length 90 m; draft 5.6 m.

Type: Cargo ship. MMSI: 636091937.

Date/timePositionNaut miles runAvg speedWind from/ knotsBaromVisibWave heightAir tempDewpointWater temp
2015-May-02 16:29N 54°36' W 001°10'0 0.0
2015-May-02 15:29N 54°36' W 001°10'0 0.0
2015-May-02 14:29N 54°36' W 001°10'0 0.0
2015-May-02 13:17N 54°36' W 001°10'0 0.0
2015-May-02 12:20N 54°36' W 001°10'0 0.0
2015-May-02 11:23N 54°36' W 001°10'0 0.0
2015-May-02 10:05N 54°36' W 001°10'0 0.0
2015-May-02 08:17N 54°36' W 001°10'0 0.0
2015-May-02 07:32N 54°36' W 001°10'0 0.0
2015-May-02 05:21N 54°36' W 001°10'0 0.0
2015-May-01 16:21N 54°36' W 001°10'0 0.0
2015-May-01 15:24N 54°36' W 001°10'0 0.0
2015-May-01 14:21N 54°36' W 001°10'4 5.4
2015-May-01 13:33N 54°40' W 001°06'3 2.7
2015-May-01 12:23N 54°40' W 001°00'3 3.1
2015-May-01 11:32N 54°39' W 000°56'7 6.9
2015-May-01 10:32N 54°36' W 000°46'6 6.0
2015-May-01 09:33N 54°34' W 000°36'7 6.8
2015-May-01 08:33N 54°30' W 000°27'7 6.9
2015-May-01 07:33N 54°25' W 000°19'7 6.7
2015-May-01 06:34N 54°19' W 000°13'7 7.4
2015-May-01 05:33N 54°14' W 000°05'6 5.7
2015-May-01 04:34N 54°09' E 000°01'5 5.0
2015-May-01 03:34N 54°05' E 000°06'5 4.6
2015-May-01 02:33N 54°01' E 000°10'4 4.5
2015-May-01 01:33N 53°57' E 000°13'5 4.5
2015-May-01 00:34N 53°53' E 000°17'5 4.9
2015-Apr-30 23:33N 53°49' E 000°21'5 5.5
2015-Apr-30 22:33N 53°44' E 000°27'7 6.3
2015-Apr-30 21:32N 53°38' E 000°31'41 5.9
2015-Apr-30 14:33N 53°08' E 001°18'7 6.9
2015-Apr-30 13:33N 53°03' E 001°25'8 7.8
2015-Apr-30 12:34N 52°57' E 001°34'9 8.6
2015-Apr-30 11:34N 52°52' E 001°45'11 8.3
2015-Apr-30 10:12N 52°43' E 001°56'5 8.2
2015-Apr-30 09:34N 52°37' E 001°57'7 7.2
2015-Apr-30 08:34N 52°30' E 001°56'6 6.1
2015-Apr-30 07:34N 52°24' E 001°54'12 6.1
2015-Apr-30 05:34N 52°12' E 001°52'6 6.2
2015-Apr-30 04:34N 52°06' E 001°51'7 6.9
2015-Apr-30 03:34N 51°59' E 001°49'8 7.9
2015-Apr-30 02:32N 51°51' E 001°49'8 8.3
2015-Apr-30 01:33N 51°43' E 001°50'9 8.4
2015-Apr-30 00:32N 51°34' E 001°49'9 8.7
2015-Apr-29 23:34N 51°26' E 001°46'9 9.2
2015-Apr-29 22:34N 51°17' E 001°42'8 8.3
2015-Apr-29 21:33N 51°09' E 001°43'10 9.3
2015-Apr-29 20:32N 51°01' E 001°33'  
2015-Apr-24 04:32N 39°16' W 009°50'7 6.9
2015-Apr-24 03:32N 39°09' W 009°50'7 6.9
2015-Apr-24 02:33N 39°02' W 009°50'7 6.7
2015-Apr-24 01:33N 38°56' W 009°51'7 6.9
2015-Apr-24 00:33N 38°49' W 009°51'7 6.8
2015-Apr-23 23:33N 38°42' W 009°50'6 5.5
2015-Apr-23 22:33N 38°37' W 009°46'7 6.9
2015-Apr-23 21:33N 38°37' W 009°37'7 6.8
2015-Apr-23 20:33N 38°37' W 009°29'7 6.6
2015-Apr-23 19:33N 38°39' W 009°21'6 6.4
2015-Apr-23 18:34N 38°41' W 009°13'7 6.5
2015-Apr-23 17:32N 38°40' W 009°04'0 0.0
2015-Apr-23 16:32N 38°40' W 009°04'0 0.0
2015-Apr-23 15:32N 38°40' W 009°04'0 0.0
2015-Apr-23 14:32N 38°40' W 009°04'0 0.0
2015-Apr-23 13:23N 38°40' W 009°04'0 0.0
2015-Apr-23 12:32N 38°40' W 009°04'0 0.0
2015-Apr-23 11:32N 38°40' W 009°04'0 0.0
2015-Apr-23 10:26N 38°40' W 009°04'0 0.0
2015-Apr-23 09:29N 38°40' W 009°04'0 0.0
2015-Apr-23 08:32N 38°40' W 009°04'0 0.0
2015-Apr-23 07:32N 38°40' W 009°04'0 0.0
2015-Apr-23 06:32N 38°40' W 009°04'0 0.0
2015-Apr-23 05:32N 38°40' W 009°04'0 0.0
2015-Apr-23 04:32N 38°40' W 009°04'0 0.0
2015-Apr-23 03:32N 38°40' W 009°04'0 0.0
2015-Apr-23 02:32N 38°40' W 009°04'0 0.0
2015-Apr-23 01:32N 38°40' W 009°04'0 0.0
2015-Apr-23 00:32N 38°40' W 009°04'0 0.0
2015-Apr-22 23:32N 38°40' W 009°04'0 0.0
2015-Apr-22 22:32N 38°40' W 009°04'0 0.0
2015-Apr-22 21:32N 38°40' W 009°04'0 0.0
2015-Apr-22 20:32N 38°40' W 009°04'0 0.0
2015-Apr-22 19:32N 38°40' W 009°04'0 0.0
2015-Apr-22 18:32N 38°40' W 009°04'0 0.0
2015-Apr-22 17:32N 38°40' W 009°04'0 0.0
2015-Apr-22 16:32N 38°40' W 009°04'  

Dump ship's entire track history